»·PEaware :: QXE2498 KEUG-KSEA

QXE2498 :: KEUG-KSEA

FLIGHT INFORMATION

Flight Status: Arrived
Operator:
Horizon Air
More flights by this operator :: More flights under this callsign
Pilot: Adlai G. (28854)
Aircraft: DEHAVILLAND DASH 8 400
(DH8D)
More flights by this aircraft type
Origin: KEUG Mahlon Sweet
United States
Destination: KSEA Seattle-Tacoma Intl
United States
More flights between these airports :: More routes between these airports
Route: EUG1 CVO UBG KRIEG HAWKZ7
File this flight plan on PilotEdge
Remarks:
Altitude:
(Current/Filed)
20,000ft
Speed:
(Current/Filed)
366kts
Departed: 11-Feb-21 11:53 AM
Arrived: 11-Feb-21 12:39 PM
Distance/Time
Traveled:
203nm/0:46
Distance/Time
To Go:
Arrived

Flight Plot

Page will automatically refresh every two minutes.

Flight plan parsing failed; only flown route is shown


Map Options




Map Legend


Flown Route
Filed Route
Departure Airport
Arrival Airport
Navaid (VOR, NDB)
Fix

Horizontal Profiles

Position Reports

Time Latitude Longitude Heading Altitude Ground
Speed
11-Feb-21 11:15 44.119212 -123.214298 57 376ft 0kts
11-Feb-21 11:16 44.119212 -123.214298 57 376ft 0kts
11-Feb-21 11:17 44.119212 -123.214298 57 376ft 0kts
11-Feb-21 11:18 44.119212 -123.214298 57 376ft 0kts
11-Feb-21 11:19 44.119212 -123.214298 57 376ft 0kts
11-Feb-21 11:20 44.119212 -123.214298 57 376ft 0kts
11-Feb-21 11:21 44.119212 -123.214298 57 376ft 0kts
11-Feb-21 11:22 44.119212 -123.214298 57 376ft 0kts
11-Feb-21 11:23 44.119212 -123.214298 57 376ft 0kts
11-Feb-21 11:24 44.119212 -123.214298 57 376ft 0kts
11-Feb-21 11:25 44.119212 -123.214298 57 376ft 0kts
11-Feb-21 11:26 44.119212 -123.214298 57 376ft 0kts
11-Feb-21 11:27 44.119212 -123.214298 57 376ft 0kts
11-Feb-21 11:28 44.119212 -123.214298 57 376ft 0kts
11-Feb-21 11:29 44.119212 -123.214298 57 376ft 0kts
11-Feb-21 11:30 44.119212 -123.214298 57 376ft 0kts
11-Feb-21 11:31 44.119212 -123.214298 57 376ft 0kts
11-Feb-21 11:32 44.119212 -123.214298 57 376ft 0kts
11-Feb-21 11:33 44.119212 -123.214298 57 376ft 0kts
11-Feb-21 11:34 44.119212 -123.214298 57 376ft 0kts
11-Feb-21 11:35 44.119212 -123.214298 57 376ft 0kts
11-Feb-21 11:36 44.119212 -123.214298 57 376ft 0kts
11-Feb-21 11:37 44.119212 -123.214298 57 376ft 0kts
11-Feb-21 11:38 44.119212 -123.214298 57 376ft 0kts
11-Feb-21 11:39 44.119212 -123.214298 57 376ft 0kts
11-Feb-21 11:40 44.119061 -123.214800 73 376ft 1kts
11-Feb-21 11:41 44.119061 -123.214800 73 376ft 0kts
11-Feb-21 11:42 44.119061 -123.214800 73 376ft 0kts
11-Feb-21 11:43 44.119061 -123.214800 73 376ft 0kts
11-Feb-21 11:44 44.119061 -123.214800 73 376ft 0kts
11-Feb-21 11:45 44.119061 -123.214800 73 376ft 0kts
11-Feb-21 11:46 44.119075 -123.214732 74 376ft 0kts
11-Feb-21 11:47 44.119082 -123.214708 70 376ft 0kts
11-Feb-21 11:48 44.119227 -123.214861 298 376ft 2kts
11-Feb-21 11:49 44.117819 -123.216953 181 376ft 20kts
11-Feb-21 11:50 44.113746 -123.217832 271 376ft 3kts
11-Feb-21 11:51 44.113747 -123.217857 271 376ft 0kts
11-Feb-21 11:52 44.114934 -123.218830 359 376ft 47kts
11-Feb-21 11:53 44.150099 -123.219673 0 2333ft 158kts
11-Feb-21 11:54 44.204066 -123.220935 359 4574ft 221kts
11-Feb-21 11:55 44.267459 -123.234053 349 7284ft 237kts
11-Feb-21 11:56 44.332383 -123.251143 348 10054ft 237kts
11-Feb-21 11:57 44.399525 -123.265801 344 12127ft 246kts
11-Feb-21 11:58 44.468487 -123.284548 343 13675ft 262kts
11-Feb-21 11:59 44.542140 -123.278447 8 15375ft 274kts
11-Feb-21 12:00 44.615751 -123.251028 8 16953ft 272kts
11-Feb-21 12:01 44.688078 -123.224374 7 18603ft 266kts
11-Feb-21 12:02 44.760615 -123.197984 7 19798ft 274kts
11-Feb-21 12:03 44.839245 -123.169409 8 20013ft 309kts
11-Feb-21 12:04 44.925657 -123.137628 8 20035ft 332kts
11-Feb-21 12:05 45.016550 -123.103801 9 20037ft 344kts
11-Feb-21 12:06 45.109816 -123.069160 9 20040ft 349kts
11-Feb-21 12:07 45.203767 -123.034031 9 20062ft 351kts
11-Feb-21 12:08 45.298547 -122.998631 9 20060ft 355kts
11-Feb-21 12:09 45.394364 -122.965575 5 20061ft 354kts
11-Feb-21 12:10 45.491400 -122.942024 4 20063ft 353kts
11-Feb-21 12:11 45.587667 -122.917001 5 20068ft 352kts
11-Feb-21 12:12 45.684047 -122.891605 5 20071ft 353kts
11-Feb-21 12:13 45.780458 -122.866335 5 20076ft 354kts
11-Feb-21 12:14 45.877389 -122.840437 5 20081ft 355kts
11-Feb-21 12:15 45.974607 -122.814698 5 20081ft 358kts
11-Feb-21 12:16 46.071988 -122.788586 5 20086ft 355kts
11-Feb-21 12:17 46.169103 -122.762718 5 20090ft 354kts
11-Feb-21 12:18 46.264875 -122.736849 5 20092ft 349kts
11-Feb-21 12:19 46.359724 -122.721725 351 20043ft 339kts
11-Feb-21 12:20 46.454451 -122.728093 353 18255ft 335kts
11-Feb-21 12:21 46.544926 -122.729550 353 16479ft 324kts
11-Feb-21 12:22 46.633766 -122.733584 353 14968ft 319kts
11-Feb-21 12:23 46.724549 -122.736868 352 13920ft 337kts
11-Feb-21 12:24 46.814136 -122.709478 44 12862ft 330kts
11-Feb-21 12:25 46.876523 -122.624485 47 11658ft 276kts
11-Feb-21 12:26 46.930635 -122.548587 48 10268ft 273kts
11-Feb-21 12:27 46.982944 -122.468915 40 8461ft 263kts
11-Feb-21 12:28 47.042695 -122.416774 29 6452ft 248kts
11-Feb-21 12:29 47.101891 -122.367459 27 6011ft 247kts
11-Feb-21 12:30 47.160225 -122.318335 25 5265ft 233kts
11-Feb-21 12:31 47.220737 -122.309272 0 4101ft 203kts
11-Feb-21 12:32 47.271659 -122.309428 0 3265ft 173kts
11-Feb-21 12:33 47.312568 -122.309364 1 2513ft 124kts
11-Feb-21 12:35 47.345598 -122.308948 2 1922ft 119kts
11-Feb-21 12:36 47.377925 -122.308196 0 1353ft 117kts
11-Feb-21 12:37 47.410469 -122.308132 1 844ft 119kts
11-Feb-21 12:38 47.439987 -122.307937 0 440ft 60kts
11-Feb-21 12:39 47.443590 -122.306821 87 440ft 0kts
11-Feb-21 12:40 47.443997 -122.305671 357 440ft 9kts
11-Feb-21 12:41 47.445348 -122.304677 49 440ft 1kts
11-Feb-21 12:42 47.445395 -122.304597 49 440ft 0kts
11-Feb-21 12:43 47.445395 -122.304597 49 440ft 0kts
11-Feb-21 12:44 47.445395 -122.304597 49 440ft 0kts
11-Feb-21 12:45 47.445395 -122.304597 49 440ft 0kts
11-Feb-21 12:46 47.445395 -122.304597 49 440ft 0kts
11-Feb-21 12:47 47.445395 -122.304597 49 440ft 0kts
11-Feb-21 12:48 47.445395 -122.304597 49 440ft 0kts
11-Feb-21 12:49 47.445395 -122.304597 49 440ft 0kts
11-Feb-21 12:50 47.445395 -122.304597 49 440ft 0kts
11-Feb-21 12:51 47.445395 -122.304597 49 440ft 0kts
11-Feb-21 12:51 47.445395 -122.304597 49 440ft 0kts
11-Feb-21 12:53 47.445395 -122.304597 49 440ft 0kts
11-Feb-21 12:53 47.445395 -122.304597 49 440ft 0kts

Navigation Log

Ident Type
Flight plan parsing failed, navigation log unavailable